Reese, Texas
Current Conditions -  °F | °C
As of 2:55 PM on Thursday 27 Nov 2014 (Local Time) from KJSO Reporting Station
Clear Clear  
Wind Chill: 61°   Ceiling: Unl
Heat Index: 61°   Visibility: 10mi
Dew Point: 22°   Wind: 5mph
Humidity: 22%   Direction: 60°ENE
Pressure: 30.44"   Gusts: NA
Location:  31.9649°N, 95.3036°W
Report Text: KJSO 272055Z AUTO 06004KT 10SM CLR 16/M05 A3044 RMK AO2 T01611056
Loading
Personal Weather Stations






























Interactive Weather Map New forecast layout! Learn more

10-Day Weather Forecast

Advertisements
Track Severe Weather on mobile